Time;durP1;ratioP1;P1;durP2;ratioP2;P2;SDS_P1;SDS_P2;PMS_P1;PMS_P2;Temp;Humidity;BMP_temperature;BMP_pressure;BME280_temperature;BME280_humidity;BME280_pressure;Samples;Min_cycle;Max_cycle;Signal;HPM_P1;HPM_P2
2022/10/08 00:01:52;;;;;;;0.10;0.10;;;;;;;;;;5025789;28;20244;-71
2022/10/08 00:04:18;;;;;;;0.10;0.10;;;;;;;;;;5024759;28;20523;-70
2022/10/08 00:06:45;;;;;;;0.10;0.10;;;;;;;;;;5025138;28;20245;-69
2022/10/08 00:09:11;;;;;;;0.10;0.10;;;;;;;;;;5025299;28;20209;-71
2022/10/08 00:11:38;;;;;;;0.10;0.10;;;;;;;;;;5023847;28;20373;-71
2022/10/08 00:14:05;;;;;;;0.10;0.10;;;;;;;;;;5026374;28;20471;-69
2022/10/08 00:16:32;;;;;;;0.10;0.10;;;;;;;;;;5023642;28;20481;-70
2022/10/08 00:19:01;;;;;;;0.10;0.10;;;;;;;;;;5026415;28;20205;-70
2022/10/08 00:21:28;;;;;;;0.10;0.10;;;;;;;;;;5023010;28;20242;-70
2022/10/08 00:23:55;;;;;;;0.10;0.10;;;;;;;;;;5026950;28;20409;-70
2022/10/08 00:26:23;;;;;;;0.10;0.10;;;;;;;;;;5021881;28;20242;-70
2022/10/08 00:28:50;;;;;;;0.10;0.10;;;;;;;;;;5028039;28;20205;-70
2022/10/08 00:31:18;;;;;;;0.10;0.10;;;;;;;;;;5021444;28;20307;-71
2022/10/08 00:33:44;;;;;;;0.10;0.10;;;;;;;;;;5028355;28;20228;-70
2022/10/08 00:36:12;;;;;;;0.10;0.10;;;;;;;;;;5020708;28;20246;-70
2022/10/08 00:38:39;;;;;;;0.10;0.10;;;;;;;;;;5029053;28;20217;-72
2022/10/08 00:41:07;;;;;;;0.10;0.10;;;;;;;;;;5020190;28;20249;-71
2022/10/08 00:43:37;;;;;;;0.10;0.10;;;;;;;;;;5029882;28;20211;-70
2022/10/08 00:46:04;;;;;;;0.10;0.10;;;;;;;;;;5019519;28;20276;-71
2022/10/08 00:48:31;;;;;;;0.10;0.10;;;;;;;;;;5030053;28;20282;-69
2022/10/08 00:50:57;;;;;;;0.10;0.10;;;;;;;;;;5018774;28;20409;-70
2022/10/08 00:53:25;;;;;;;0.10;0.10;;;;;;;;;;5030954;28;20209;-77
2022/10/08 00:55:52;;;;;;;0.07;0.07;;;;;;;;;;5017804;28;20240;-77
2022/10/08 00:58:21;;;;;;;0.10;0.10;;;;;;;;;;5033853;28;20211;-78
2022/10/08 01:00:48;;;;;;;0.10;0.10;;;;;;;;;;5021171;28;20235;-78
2022/10/08 01:03:14;;;;;;;0.10;0.10;;;;;;;;;;5035759;28;20396;-78
2022/10/08 01:05:44;;;;;;;0.10;0.10;;;;;;;;;;5020727;28;20246;-76
2022/10/08 01:08:14;;;;;;;0.10;0.10;;;;;;;;;;5036246;28;20384;-77
2022/10/08 01:10:44;;;;;;;0.10;0.10;;;;;;;;;;5020217;28;20252;-78
2022/10/08 01:13:15;;;;;;;0.10;0.10;;;;;;;;;;5035925;28;20206;-77
2022/10/08 01:15:48;;;;;;;0.10;0.10;;;;;;;;;;5020683;28;20291;-77
2022/10/08 01:18:20;;;;;;;0.10;0.10;;;;;;;;;;5035719;28;20233;-77
2022/10/08 01:20:52;;;;;;;0.10;0.10;;;;;;;;;;5020787;28;20302;-77
2022/10/08 01:23:33;;;;;;;0.10;0.10;;;;;;;;;;5035193;28;20207;-77
2022/10/08 01:26:07;;;;;;;0.10;0.10;;;;;;;;;;5020556;28;20412;-77
2022/10/08 01:28:39;;;;;;;0.10;0.10;;;;;;;;;;5033273;28;20202;-78
2022/10/08 01:31:06;;;;;;;0.10;0.10;;;;;;;;;;5023097;28;20239;-77
2022/10/08 01:33:35;;;;;;;0.10;0.10;;;;;;;;;;5033157;28;20276;-77
2022/10/08 01:36:04;;;;;;;0.10;0.10;;;;;;;;;;5022639;28;20264;-77
2022/10/08 01:38:32;;;;;;;0.10;0.10;;;;;;;;;;5033166;28;20216;-77
2022/10/08 01:41:01;;;;;;;0.10;0.10;;;;;;;;;;5021971;28;20293;-77
2022/10/08 01:43:30;;;;;;;0.10;0.10;;;;;;;;;;5033636;28;20208;-77
2022/10/08 01:45:59;;;;;;;0.10;0.10;;;;;;;;;;5021632;28;20247;-76
2022/10/08 01:48:28;;;;;;;0.10;0.10;;;;;;;;;;5033624;28;20210;-77
2022/10/08 01:50:57;;;;;;;0.10;0.10;;;;;;;;;;5021204;28;20589;-76
2022/10/08 01:53:25;;;;;;;0.10;0.10;;;;;;;;;;5033888;28;20208;-76
2022/10/08 01:55:53;;;;;;;0.10;0.10;;;;;;;;;;5020618;28;20305;-77
2022/10/08 01:58:30;;;;;;;0.10;0.10;;;;;;;;;;5034250;28;20407;-76
2022/10/08 02:01:00;;;;;;;0.10;0.10;;;;;;;;;;5021212;28;20240;-76
2022/10/08 02:03:27;;;;;;;0.10;0.10;;;;;;;;;;5033376;28;20358;-78
2022/10/08 02:05:54;;;;;;;0.10;0.10;;;;;;;;;;5020486;28;20246;-76
2022/10/08 02:08:21;;;;;;;0.10;0.10;;;;;;;;;;5033371;28;20211;-78
2022/10/08 02:10:48;;;;;;;0.10;0.10;;;;;;;;;;5019796;28;20274;-77
2022/10/08 02:13:14;;;;;;;0.10;0.10;;;;;;;;;;5034829;28;20212;-77
2022/10/08 02:15:44;;;;;;;0.10;0.10;;;;;;;;;;5019636;28;20284;-76
2022/10/08 02:18:14;;;;;;;0.10;0.10;;;;;;;;;;5035259;28;20217;-77
2022/10/08 02:20:44;;;;;;;0.10;0.10;;;;;;;;;;5019700;28;20579;-76
2022/10/08 02:23:13;;;;;;;0.10;0.10;;;;;;;;;;5035197;28;20396;-77
2022/10/08 02:25:43;;;;;;;0.10;0.10;;;;;;;;;;5018791;28;20261;-77
2022/10/08 02:28:12;;;;;;;0.10;0.10;;;;;;;;;;5035586;28;20206;-76
2022/10/08 02:30:43;;;;;;;0.10;0.10;;;;;;;;;;5018981;28;20251;-78
2022/10/08 02:33:12;;;;;;;0.10;0.10;;;;;;;;;;5035189;28;20211;-77
2022/10/08 02:35:44;;;;;;;0.10;0.10;;;;;;;;;;5018751;28;20575;-76
2022/10/08 02:38:13;;;;;;;0.10;0.10;;;;;;;;;;5034724;28;20522;-76
2022/10/08 02:40:41;;;;;;;0.10;0.10;;;;;;;;;;5018481;28;20253;-78
2022/10/08 02:43:09;;;;;;;0.10;0.10;;;;;;;;;;5034935;28;20205;-78
2022/10/08 02:45:39;;;;;;;0.10;0.10;;;;;;;;;;5018285;28;20307;-76
2022/10/08 02:48:08;;;;;;;0.10;0.10;;;;;;;;;;5034934;28;20210;-78
2022/10/08 02:50:36;;;;;;;0.10;0.10;;;;;;;;;;5017773;28;20242;-77
2022/10/08 02:53:04;;;;;;;0.10;0.10;;;;;;;;;;5035529;28;20239;-76
2022/10/08 02:55:35;;;;;;;0.10;0.10;;;;;;;;;;5017459;28;20262;-77
2022/10/08 02:58:03;;;;;;;0.10;0.10;;;;;;;;;;5035185;28;20212;-78
2022/10/08 03:00:38;;;;;;;1.03;1.03;;;;;;;;;;5017358;28;20502;-78
2022/10/08 03:03:08;;;;;;;0.10;0.10;;;;;;;;;;5034957;28;20449;-78
2022/10/08 03:05:35;;;;;;;0.10;0.10;;;;;;;;;;5017811;28;20243;-77
2022/10/08 03:08:04;;;;;;;0.10;0.10;;;;;;;;;;5035077;28;20208;-77
2022/10/08 03:10:33;;;;;;;0.10;0.10;;;;;;;;;;5017079;28;20324;-77
2022/10/08 03:13:00;;;;;;;0.10;0.10;;;;;;;;;;5035434;28;20471;-76
2022/10/08 03:15:27;;;;;;;0.10;0.10;;;;;;;;;;5016238;28;20241;-77
2022/10/08 03:17:53;;;;;;;0.10;0.10;;;;;;;;;;5035856;28;20207;-78
2022/10/08 03:20:19;;;;;;;0.10;0.10;;;;;;;;;;5014965;28;20307;-77
2022/10/08 03:22:46;;;;;;;0.10;0.10;;;;;;;;;;5037007;28;20212;-77
2022/10/08 03:25:14;;;;;;;0.10;0.10;;;;;;;;;;5014884;28;20267;-77
2022/10/08 03:27:40;;;;;;;0.10;0.10;;;;;;;;;;5037746;28;20215;-79
2022/10/08 03:30:07;;;;;;;0.10;0.10;;;;;;;;;;5013838;28;20207;-77
2022/10/08 03:32:33;;;;;;;0.10;0.10;;;;;;;;;;5038607;28;20233;-77
2022/10/08 03:35:00;;;;;;;0.10;0.10;;;;;;;;;;5023753;28;20394;-77
2022/10/08 03:37:26;;;;;;;0.10;0.10;;;;;;;;;;5028674;28;20249;-76
2022/10/08 03:39:52;;;;;;;0.10;0.10;;;;;;;;;;5023715;28;20537;-78
2022/10/08 03:42:20;;;;;;;0.10;0.10;;;;;;;;;;5028640;28;20336;-77
2022/10/08 03:44:46;;;;;;;0.10;0.10;;;;;;;;;;5023023;28;20213;-77
2022/10/08 03:47:12;;;;;;;0.10;0.10;;;;;;;;;;5028369;28;20301;-79
2022/10/08 03:49:40;;;;;;;0.10;0.10;;;;;;;;;;5023186;28;20389;-76
2022/10/08 03:52:06;;;;;;;0.10;0.10;;;;;;;;;;5028337;28;20256;-77
2022/10/08 03:54:33;;;;;;;0.10;0.10;;;;;;;;;;5023288;28;20212;-77
2022/10/08 03:57:00;;;;;;;0.10;0.10;;;;;;;;;;5026713;28;20437;-76
2022/10/08 03:59:27;;;;;;;0.10;0.10;;;;;;;;;;5023798;28;20255;-77
2022/10/08 04:01:54;;;;;;;0.10;0.10;;;;;;;;;;5025171;28;20245;-78
2022/10/08 04:04:20;;;;;;;0.20;0.20;;;;;;;;;;5025475;28;20213;-76
2022/10/08 04:06:46;;;;;;;0.10;0.10;;;;;;;;;;5024279;28;20499;-75
2022/10/08 04:09:14;;;;;;;0.10;0.10;;;;;;;;;;5026356;28;20239;-77
2022/10/08 04:11:41;;;;;;;0.10;0.10;;;;;;;;;;5024712;28;20242;-75
2022/10/08 04:14:07;;;;;;;0.10;0.10;;;;;;;;;;5025902;28;20400;-76
2022/10/08 04:16:35;;;;;;;0.10;0.10;;;;;;;;;;5023804;28;20247;-77
2022/10/08 04:19:01;;;;;;;0.10;0.10;;;;;;;;;;5026737;28;20204;-77
2022/10/08 04:21:29;;;;;;;0.10;0.10;;;;;;;;;;5023346;28;20316;-78
2022/10/08 04:23:55;;;;;;;0.10;0.10;;;;;;;;;;5027214;28;20399;-77
2022/10/08 04:26:22;;;;;;;0.10;0.10;;;;;;;;;;5022382;28;20249;-77
2022/10/08 04:28:48;;;;;;;0.10;0.10;;;;;;;;;;5028374;28;20207;-78
2022/10/08 04:31:16;;;;;;;0.10;0.10;;;;;;;;;;5021279;28;20258;-78
2022/10/08 04:33:44;;;;;;;0.10;0.10;;;;;;;;;;5031944;28;20402;-77
2022/10/08 04:36:11;;;;;;;0.10;0.10;;;;;;;;;;5024927;28;20507;-76
2022/10/08 04:38:37;;;;;;;0.10;0.10;;;;;;;;;;5033213;28;20389;-76
2022/10/08 04:41:04;;;;;;;0.10;0.10;;;;;;;;;;5023847;28;20309;-78
2022/10/08 04:43:31;;;;;;;0.10;0.10;;;;;;;;;;5034476;28;20201;-77
2022/10/08 04:45:57;;;;;;;0.10;0.10;;;;;;;;;;5023168;28;20353;-76
2022/10/08 04:48:23;;;;;;;0.10;0.10;;;;;;;;;;5034958;28;20207;-77
2022/10/08 04:50:55;;;;;;;0.10;0.10;;;;;;;;;;5021970;28;20425;-77
2022/10/08 04:53:21;;;;;;;0.10;0.10;;;;;;;;;;5035134;28;20596;-73
2022/10/08 04:55:47;;;;;;;0.10;0.10;;;;;;;;;;5021477;28;20281;-74
2022/10/08 04:58:14;;;;;;;0.10;0.10;;;;;;;;;;5035993;28;20212;-73
2022/10/08 05:00:40;;;;;;;0.10;0.10;;;;;;;;;;5020236;28;20247;-74
2022/10/08 05:03:06;;;;;;;0.10;0.10;;;;;;;;;;5036891;28;20400;-73
2022/10/08 05:05:33;;;;;;;0.10;0.10;;;;;;;;;;5019611;28;20513;-73
2022/10/08 05:08:03;;;;;;;0.10;0.10;;;;;;;;;;5037917;28;20212;-74
2022/10/08 05:10:29;;;;;;;0.10;0.10;;;;;;;;;;5019238;28;20581;-73
2022/10/08 05:12:56;;;;;;;0.10;0.10;;;;;;;;;;5038450;28;20240;-72
2022/10/08 05:15:22;;;;;;;0.10;0.10;;;;;;;;;;5018292;28;20206;-73
2022/10/08 05:17:48;;;;;;;0.10;0.10;;;;;;;;;;5039218;28;20208;-74
2022/10/08 05:20:16;;;;;;;0.10;0.10;;;;;;;;;;5017011;28;20206;-73
2022/10/08 05:22:42;;;;;;;0.10;0.10;;;;;;;;;;5039924;28;20203;-74
2022/10/08 05:25:10;;;;;;;0.10;0.10;;;;;;;;;;5016564;28;20205;-73
2022/10/08 05:27:36;;;;;;;0.10;0.10;;;;;;;;;;5040670;28;20219;-73
2022/10/08 05:30:03;;;;;;;0.10;0.10;;;;;;;;;;5025923;28;20269;-73
2022/10/08 05:32:29;;;;;;;0.10;0.10;;;;;;;;;;5014794;28;20481;-73
2022/10/08 05:34:56;;;;;;;0.10;0.10;;;;;;;;;;5026067;28;20215;-73
2022/10/08 05:37:22;;;;;;;0.10;0.10;;;;;;;;;;5030874;28;20240;-74
2022/10/08 05:39:49;;;;;;;0.10;0.10;;;;;;;;;;5025677;28;20361;-74
2022/10/08 05:42:16;;;;;;;0.10;0.10;;;;;;;;;;5031006;28;20456;-73
2022/10/08 05:44:43;;;;;;;0.10;0.10;;;;;;;;;;5025341;28;20370;-74
2022/10/08 05:47:09;;;;;;;0.10;0.10;;;;;;;;;;5030999;28;20256;-73
2022/10/08 05:49:35;;;;;;;0.10;0.10;;;;;;;;;;5025284;28;20209;-73
2022/10/08 05:52:02;;;;;;;1.57;1.57;;;;;;;;;;5029949;28;20435;-73
2022/10/08 05:54:28;;;;;;;0.10;0.10;;;;;;;;;;5025957;28;20512;-72
2022/10/08 05:56:54;;;;;;;0.10;0.10;;;;;;;;;;5029250;28;20490;-73
2022/10/08 05:59:23;;;;;;;0.10;0.10;;;;;;;;;;5026683;28;20295;-73
2022/10/08 06:01:49;;;;;;;0.10;0.10;;;;;;;;;;5028009;28;20247;-74
2022/10/08 06:04:17;;;;;;;0.10;0.10;;;;;;;;;;5027557;28;20297;-75
2022/10/08 06:06:43;;;;;;;0.10;0.10;;;;;;;;;;5027531;28;20468;-72
2022/10/08 06:09:11;;;;;;;0.10;0.10;;;;;;;;;;5027773;28;20208;-73
2022/10/08 06:11:38;;;;;;;0.10;0.10;;;;;;;;;;5026614;28;20488;-75
2022/10/08 06:14:05;;;;;;;0.10;0.10;;;;;;;;;;5028659;28;20231;-74
2022/10/08 06:16:33;;;;;;;0.10;0.10;;;;;;;;;;5025795;28;20310;-73
2022/10/08 06:19:02;;;;;;;0.10;0.10;;;;;;;;;;5029165;28;20211;-74
2022/10/08 06:21:29;;;;;;;0.00;0.00;;;;;;;;;;5025187;28;20244;-73
2022/10/08 06:23:56;;;;;;;0.10;0.10;;;;;;;;;;5029406;28;20203;-73
2022/10/08 06:26:25;;;;;;;0.10;0.10;;;;;;;;;;5024221;28;20247;-74
2022/10/08 06:28:51;;;;;;;0.10;0.10;;;;;;;;;;5029930;28;20298;-73
2022/10/08 06:31:18;;;;;;;0.10;0.10;;;;;;;;;;5023880;28;20316;-73
2022/10/08 06:33:46;;;;;;;0.10;0.10;;;;;;;;;;5030724;28;20235;-73
2022/10/08 06:36:14;;;;;;;0.10;0.10;;;;;;;;;;5022994;28;20250;-73
2022/10/08 06:38:40;;;;;;;0.10;0.10;;;;;;;;;;5031160;28;20316;-73
2022/10/08 06:41:06;;;;;;;0.10;0.10;;;;;;;;;;5022020;28;20245;-74
2022/10/08 06:43:33;;;;;;;0.10;0.10;;;;;;;;;;5031794;28;20208;-73
2022/10/08 06:46:03;;;;;;;0.10;0.10;;;;;;;;;;5021022;28;20618;-73
2022/10/08 06:48:29;;;;;;;0.10;0.10;;;;;;;;;;5032444;28;20201;-73
2022/10/08 06:51:01;;;;;;;0.10;0.10;;;;;;;;;;5020437;28;20247;-74
2022/10/08 06:53:31;;;;;;;0.10;0.10;;;;;;;;;;5032190;28;20231;-73
2022/10/08 06:55:58;;;;;;;0.10;0.10;;;;;;;;;;5019554;28;20257;-73
2022/10/08 06:58:24;;;;;;;0.10;0.10;;;;;;;;;;5032857;28;20209;-74
2022/10/08 07:00:59;;;;;;;0.10;0.10;;;;;;;;;;5019601;28;20238;-73
2022/10/08 07:03:26;;;;;;;0.10;0.10;;;;;;;;;;5032779;28;20197;-73
2022/10/08 07:05:52;;;;;;;0.10;0.10;;;;;;;;;;5019869;28;20420;-73
2022/10/08 07:08:20;;;;;;;0.10;0.10;;;;;;;;;;5033576;28;20223;-74
2022/10/08 07:10:46;;;;;;;0.10;0.10;;;;;;;;;;5019028;28;20835;-73
2022/10/08 07:13:14;;;;;;;0.10;0.10;;;;;;;;;;5033693;28;20222;-74
2022/10/08 07:15:40;;;;;;;0.10;0.10;;;;;;;;;;5018034;28;20256;-74
2022/10/08 07:18:10;;;;;;;0.10;0.10;;;;;;;;;;5034424;28;20207;-74
2022/10/08 07:20:36;;;;;;;0.10;0.10;;;;;;;;;;5017344;28;20241;-74
2022/10/08 07:23:03;;;;;;;0.10;0.10;;;;;;;;;;5034914;28;20210;-73
2022/10/08 07:25:30;;;;;;;0.10;0.10;;;;;;;;;;5016626;28;20261;-73
2022/10/08 07:27:57;;;;;;;0.10;0.10;;;;;;;;;;5035622;28;20397;-73
2022/10/08 07:30:23;;;;;;;0.10;0.10;;;;;;;;;;5015653;28;20284;-73
2022/10/08 07:32:51;;;;;;;0.10;0.10;;;;;;;;;;5036243;28;20401;-73
2022/10/08 07:35:18;;;;;;;0.10;0.10;;;;;;;;;;5015072;28;20214;-73
2022/10/08 07:37:44;;;;;;;0.10;0.10;;;;;;;;;;5036619;28;20225;-73
2022/10/08 07:40:10;;;;;;;0.10;0.10;;;;;;;;;;5014143;28;20208;-74
2022/10/08 07:42:38;;;;;;;0.10;0.10;;;;;;;;;;5037895;28;20495;-73
2022/10/08 07:45:06;;;;;;;0.10;0.10;;;;;;;;;;5020378;28;20477;-74
2022/10/08 07:47:32;;;;;;;0.10;0.10;;;;;;;;;;5038170;28;20227;-72
2022/10/08 07:49:59;;;;;;;0.10;0.10;;;;;;;;;;5023459;28;20243;-73
2022/10/08 07:52:25;;;;;;;0.10;0.10;;;;;;;;;;5028491;28;20248;-73
2022/10/08 07:54:51;;;;;;;0.10;0.10;;;;;;;;;;5023436;28;20539;-73
2022/10/08 07:57:18;;;;;;;0.10;0.10;;;;;;;;;;5028406;28;20390;-74
2022/10/08 07:59:46;;;;;;;0.10;0.10;;;;;;;;;;5023156;28;20301;-75
2022/10/08 08:02:12;;;;;;;0.10;0.10;;;;;;;;;;5030616;28;20238;-74
2022/10/08 08:04:39;;;;;;;0.10;0.10;;;;;;;;;;5023737;28;20554;-73
2022/10/08 08:07:05;;;;;;;0.50;0.50;;;;;;;;;;5026115;28;20316;-74
2022/10/08 08:09:32;;;;;;;0.10;0.10;;;;;;;;;;5023362;28;20279;-74
2022/10/08 08:11:58;;;;;;;0.10;0.10;;;;;;;;;;5027343;28;20244;-73
2022/10/08 08:14:24;;;;;;;0.00;0.00;;;;;;;;;;5023857;28;20236;-74
2022/10/08 08:16:52;;;;;;;0.10;0.10;;;;;;;;;;5026089;28;20272;-73
2022/10/08 08:19:18;;;;;;;0.10;0.10;;;;;;;;;;5024720;28;20318;-74
2022/10/08 08:21:45;;;;;;;0.10;0.10;;;;;;;;;;5025079;28;20243;-73
2022/10/08 08:24:12;;;;;;;0.10;0.10;;;;;;;;;;5025208;28;20201;-73
2022/10/08 08:26:39;;;;;;;0.10;0.10;;;;;;;;;;5024217;28;20302;-73
2022/10/08 08:29:07;;;;;;;0.10;0.10;;;;;;;;;;5026174;28;20394;-74
2022/10/08 08:31:35;;;;;;;0.10;0.10;;;;;;;;;;5024537;28;20566;-74
2022/10/08 08:34:05;;;;;;;0.10;0.10;;;;;;;;;;5026665;28;20243;-72
2022/10/08 08:36:33;;;;;;;0.10;0.10;;;;;;;;;;5023701;28;20347;-73
2022/10/08 08:38:59;;;;;;;0.00;0.00;;;;;;;;;;5027373;28;20207;-73
2022/10/08 08:41:32;;;;;;;0.10;0.10;;;;;;;;;;5023455;28;20404;-75
2022/10/08 08:43:59;;;;;;;0.10;0.10;;;;;;;;;;5027000;28;20192;-75
2022/10/08 08:46:27;;;;;;;0.10;0.10;;;;;;;;;;5023344;28;20494;-74
2022/10/08 08:48:55;;;;;;;0.10;0.10;;;;;;;;;;5027652;28;20209;-74
2022/10/08 08:51:23;;;;;;;0.10;0.10;;;;;;;;;;5022405;28;20546;-74
2022/10/08 08:53:49;;;;;;;0.10;0.10;;;;;;;;;;5028586;28;20394;-75
2022/10/08 08:56:17;;;;;;;0.10;0.10;;;;;;;;;;5021983;28;20311;-72
2022/10/08 08:58:46;;;;;;;0.10;0.10;;;;;;;;;;5028738;28;20212;-68
2022/10/08 09:01:16;;;;;;;0.10;0.10;;;;;;;;;;5020905;28;20240;-68
2022/10/08 09:03:46;;;;;;;0.10;0.10;;;;;;;;;;5028232;28;20297;-68
2022/10/08 09:06:14;;;;;;;0.10;0.10;;;;;;;;;;5020737;28;20307;-69
2022/10/08 09:08:43;;;;;;;0.10;0.10;;;;;;;;;;5028573;28;20216;-68
2022/10/08 09:11:12;;;;;;;0.08;0.08;;;;;;;;;;5020109;28;20283;-67
2022/10/08 09:13:40;;;;;;;0.10;0.10;;;;;;;;;;5028860;28;20227;-67
2022/10/08 09:16:09;;;;;;;0.10;0.10;;;;;;;;;;5019742;28;20430;-67
2022/10/08 09:18:37;;;;;;;0.10;0.10;;;;;;;;;;5030358;28;20566;-67
2022/10/08 09:21:04;;;;;;;0.10;0.10;;;;;;;;;;5023419;28;20244;-67
2022/10/08 09:23:30;;;;;;;0.10;0.10;;;;;;;;;;5033878;28;20207;-68
2022/10/08 09:26:00;;;;;;;0.10;0.10;;;;;;;;;;5022250;28;20305;-68
2022/10/08 09:28:44;;;;;;;0.00;0.00;;;;;;;;;;5033989;28;20213;-68
2022/10/08 09:31:19;;;;;;;0.10;0.10;;;;;;;;;;5023785;28;20569;-69
2022/10/08 09:33:52;;;;;;;0.10;0.10;;;;;;;;;;5031640;28;20563;-67
2022/10/08 09:36:27;;;;;;;0.10;0.10;;;;;;;;;;5024871;28;20249;-68
2022/10/08 09:38:57;;;;;;;0.00;0.00;;;;;;;;;;5030170;28;20240;-67
2022/10/08 09:41:27;;;;;;;0.10;0.10;;;;;;;;;;5025422;28;20299;-68
2022/10/08 09:44:05;;;;;;;0.00;0.00;;;;;;;;;;5030372;28;20197;-67
2022/10/08 09:46:32;;;;;;;0.10;0.10;;;;;;;;;;5026206;28;20301;-66
2022/10/08 09:49:19;;;;;;;0.10;0.10;;;;;;;;;;5029180;28;20521;-67
2022/10/08 09:51:45;;;;;;;0.05;0.05;;;;;;;;;;5027890;28;20242;-68
2022/10/08 09:54:13;;;;;;;0.10;0.10;;;;;;;;;;5027384;28;20229;-67
2022/10/08 09:56:41;;;;;;;0.05;0.05;;;;;;;;;;5026870;28;20242;-67
2022/10/08 09:59:15;;;;;;;0.00;0.00;;;;;;;;;;5028484;28;20377;-67
2022/10/08 10:01:44;;;;;;;0.00;0.00;;;;;;;;;;5027210;28;20354;-67
2022/10/08 10:04:16;;;;;;;0.03;0.03;;;;;;;;;;5027652;28;20206;-68
2022/10/08 10:06:45;;;;;;;0.10;0.10;;;;;;;;;;5027426;28;20247;-66
2022/10/08 10:09:21;;;;;;;0.00;0.00;;;;;;;;;;5027095;28;20203;-66
2022/10/08 10:11:50;;;;;;;0.10;0.10;;;;;;;;;;5027561;28;20568;-67
2022/10/08 10:14:20;;;;;;;0.10;0.10;;;;;;;;;;5026754;28;20298;-66
2022/10/08 10:16:48;;;;;;;0.05;0.05;;;;;;;;;;5027332;28;20443;-67
2022/10/08 10:19:16;;;;;;;0.10;0.10;;;;;;;;;;5026991;28;20395;-66
2022/10/08 10:21:46;;;;;;;0.10;0.10;;;;;;;;;;5026974;28;20291;-68
2022/10/08 10:24:22;;;;;;;0.10;0.10;;;;;;;;;;5026824;28;20206;-67
2022/10/08 10:26:53;;;;;;;0.10;0.10;;;;;;;;;;5027531;28;20294;-67
2022/10/08 10:29:20;;;;;;;0.10;0.10;;;;;;;;;;5025368;28;20230;-67
2022/10/08 10:31:49;;;;;;;0.00;0.00;;;;;;;;;;5026553;28;20250;-67
2022/10/08 10:34:17;;;;;;;0.10;0.10;;;;;;;;;;5026289;28;20225;-66
2022/10/08 10:36:45;;;;;;;0.10;0.10;;;;;;;;;;5026403;28;20259;-66
2022/10/08 10:39:14;;;;;;;0.10;0.10;;;;;;;;;;5026474;28;20200;-66
2022/10/08 10:41:43;;;;;;;0.10;0.10;;;;;;;;;;5026096;28;20259;-66
2022/10/08 10:44:12;;;;;;;0.10;0.10;;;;;;;;;;5027219;28;20211;-65
2022/10/08 10:46:40;;;;;;;0.10;0.10;;;;;;;;;;5026000;28;20491;-65
2022/10/08 10:49:12;;;;;;;0.10;0.10;;;;;;;;;;5027205;28;20206;-66
2022/10/08 10:51:45;;;;;;;0.03;0.03;;;;;;;;;;5026022;28;20244;-65
2022/10/08 10:54:20;;;;;;;0.10;0.10;;;;;;;;;;5026741;28;20209;-66
2022/10/08 10:56:49;;;;;;;0.08;0.08;;;;;;;;;;5026814;28;20240;-65
2022/10/08 10:59:29;;;;;;;0.00;0.00;;;;;;;;;;5026295;28;20226;-66
2022/10/08 11:01:58;;;;;;;0.10;0.10;;;;;;;;;;5027919;28;20240;-65
2022/10/08 11:04:31;;;;;;;0.10;0.10;;;;;;;;;;5025003;28;20215;-65
2022/10/08 11:07:09;;;;;;;0.10;0.10;;;;;;;;;;5028129;28;20484;-65
2022/10/08 11:09:40;;;;;;;0.03;0.03;;;;;;;;;;5023871;28;20225;-64
2022/10/08 11:12:13;;;;;;;0.10;0.10;;;;;;;;;;5028950;28;20568;-66
2022/10/08 11:14:43;;;;;;;0.10;0.10;;;;;;;;;;5023885;28;20228;-65
2022/10/08 11:17:19;;;;;;;0.10;0.10;;;;;;;;;;5028931;28;20241;-64
2022/10/08 11:19:49;;;;;;;0.10;0.10;;;;;;;;;;5023770;28;20202;-65
2022/10/08 11:22:22;;;;;;;0.10;0.10;;;;;;;;;;5028893;28;20253;-65
2022/10/08 11:24:54;;;;;;;0.10;0.10;;;;;;;;;;5023574;28;20194;-65
2022/10/08 11:27:24;;;;;;;0.10;0.10;;;;;;;;;;5028771;28;20243;-65
2022/10/08 11:29:55;;;;;;;0.10;0.10;;;;;;;;;;5023793;28;20233;-66
2022/10/08 11:32:22;;;;;;;0.38;0.38;;;;;;;;;;5028773;28;20251;-66
2022/10/08 11:34:53;;;;;;;0.10;0.10;;;;;;;;;;5023614;28;20415;-78
2022/10/08 11:37:24;;;;;;;0.10;0.10;;;;;;;;;;5028273;28;20244;-77
2022/10/08 11:39:52;;;;;;;0.10;0.10;;;;;;;;;;5023318;28;20268;-78
2022/10/08 11:42:23;;;;;;;0.10;0.10;;;;;;;;;;5028219;28;20250;-78
2022/10/08 11:44:51;;;;;;;0.10;0.10;;;;;;;;;;5023657;28;20219;-77
2022/10/08 11:47:46;;;;;;;0.10;0.10;;;;;;;;;;5028942;28;20467;-78
2022/10/08 11:50:21;;;;;;;0.10;0.10;;;;;;;;;;5014498;28;20205;-78
2022/10/08 11:52:48;;;;;;;0.10;0.10;;;;;;;;;;5036760;28;20196;-78
2022/10/08 11:55:23;;;;;;;0.10;0.10;;;;;;;;;;5014266;28;20237;-79
2022/10/08 11:57:55;;;;;;;0.10;0.10;;;;;;;;;;5035959;28;20279;-79
2022/10/08 12:00:29;;;;;;;0.10;0.10;;;;;;;;;;5015014;28;20227;-78
2022/10/08 12:02:56;;;;;;;0.10;0.10;;;;;;;;;;5035186;28;20232;-77
2022/10/08 12:05:33;;;;;;;0.10;0.10;;;;;;;;;;5015014;28;20202;-78
2022/10/08 12:08:01;;;;;;;0.10;0.10;;;;;;;;;;5035000;28;20196;-78
2022/10/08 12:10:29;;;;;;;0.10;0.10;;;;;;;;;;5015783;28;20278;-78
2022/10/08 12:13:23;;;;;;;0.10;0.10;;;;;;;;;;5035173;28;20212;-77
2022/10/08 12:15:52;;;;;;;0.10;0.10;;;;;;;;;;5018692;28;20244;-78
2022/10/08 12:18:32;;;;;;;0.10;0.10;;;;;;;;;;5032674;28;20218;-79
2022/10/08 12:21:28;;;;;;;0.10;0.10;;;;;;;;;;5019747;28;20246;-77
2022/10/08 12:23:55;;;;;;;0.10;0.10;;;;;;;;;;5026705;28;20398;-68
2022/10/08 12:26:21;;;;;;;0.10;0.10;;;;;;;;;;5022510;28;20242;-68
2022/10/08 12:28:49;;;;;;;0.10;0.10;;;;;;;;;;5028107;28;20205;-68
2022/10/08 12:31:23;;;;;;;0.10;0.10;;;;;;;;;;5021809;28;20264;-70
2022/10/08 12:34:10;;;;;;;0.10;0.10;;;;;;;;;;5027872;28;20203;-69
2022/10/08 12:36:41;;;;;;;0.10;0.10;;;;;;;;;;5020299;28;20243;-69
2022/10/08 12:39:11;;;;;;;0.10;0.10;;;;;;;;;;5028101;28;20198;-66
2022/10/08 12:41:43;;;;;;;0.10;0.10;;;;;;;;;;5023246;28;20242;-69
2022/10/08 12:44:17;;;;;;;0.10;0.10;;;;;;;;;;5026320;28;20194;-68
2022/10/08 12:46:49;;;;;;;0.10;0.10;;;;;;;;;;5024874;28;20277;-68
2022/10/08 12:49:19;;;;;;;0.10;0.10;;;;;;;;;;5024811;28;20197;-67
2022/10/08 12:51:47;;;;;;;0.10;0.10;;;;;;;;;;5025318;28;20293;-67
2022/10/08 12:54:17;;;;;;;0.10;0.10;;;;;;;;;;5027175;28;20492;-68
2022/10/08 12:56:44;;;;;;;0.10;0.10;;;;;;;;;;5028939;28;20405;-67
2022/10/08 12:59:11;;;;;;;0.10;0.10;;;;;;;;;;5028881;28;20231;-68
2022/10/08 13:01:37;;;;;;;0.10;0.10;;;;;;;;;;5027843;28;20241;-67
2022/10/08 13:04:08;;;;;;;0.10;0.10;;;;;;;;;;5029670;28;20205;-67
2022/10/08 13:06:35;;;;;;;0.10;0.10;;;;;;;;;;5027564;28;20260;-68
2022/10/08 13:09:12;;;;;;;0.10;0.10;;;;;;;;;;5029953;28;20300;-67
2022/10/08 13:11:38;;;;;;;0.10;0.10;;;;;;;;;;5027880;28;20240;-70
2022/10/08 13:14:04;;;;;;;0.10;0.10;;;;;;;;;;5029593;28;20294;-68
2022/10/08 13:16:45;;;;;;;0.10;0.10;;;;;;;;;;5026633;28;20243;-68
2022/10/08 13:19:17;;;;;;;0.10;0.10;;;;;;;;;;5028578;28;20197;-68
2022/10/08 13:21:53;;;;;;;0.10;0.10;;;;;;;;;;5028237;28;20270;-68
2022/10/08 13:24:30;;;;;;;0.00;0.00;;;;;;;;;;5027737;28;20251;-68
2022/10/08 13:26:56;;;;;;;0.00;0.00;;;;;;;;;;5029810;28;20247;-68
2022/10/08 13:29:27;;;;;;;0.10;0.10;;;;;;;;;;5026762;28;20212;-69
2022/10/08 13:31:55;;;;;;;0.10;0.10;;;;;;;;;;5029408;28;20253;-68
2022/10/08 13:34:23;;;;;;;0.10;0.10;;;;;;;;;;5027235;28;20373;-68
2022/10/08 13:36:51;;;;;;;0.10;0.10;;;;;;;;;;5028700;28;20245;-69
2022/10/08 13:39:22;;;;;;;0.10;0.10;;;;;;;;;;5027672;28;20228;-69
2022/10/08 13:41:51;;;;;;;0.10;0.10;;;;;;;;;;5028550;28;20477;-66
2022/10/08 13:44:18;;;;;;;0.10;0.10;;;;;;;;;;5026943;28;20274;-65
2022/10/08 13:46:44;;;;;;;0.10;0.10;;;;;;;;;;5027741;28;20250;-65
2022/10/08 13:49:18;;;;;;;0.10;0.10;;;;;;;;;;5028142;28;20462;-72
2022/10/08 13:51:46;;;;;;;0.10;0.10;;;;;;;;;;5027696;28;20408;-66
2022/10/08 13:54:12;;;;;;;0.10;0.10;;;;;;;;;;5027563;28;20215;-75
2022/10/08 13:56:38;;;;;;;0.10;0.10;;;;;;;;;;5026879;28;20454;-76
2022/10/08 13:59:05;;;;;;;0.10;0.10;;;;;;;;;;5028737;28;20526;-76
2022/10/08 14:01:31;;;;;;;0.10;0.10;;;;;;;;;;5025671;28;20313;-77
2022/10/08 14:03:58;;;;;;;0.08;0.08;;;;;;;;;;5029342;28;20216;-77
2022/10/08 14:06:24;;;;;;;0.10;0.10;;;;;;;;;;5024923;28;20305;-77
2022/10/08 14:08:52;;;;;;;0.10;0.10;;;;;;;;;;5030323;28;20278;-76
2022/10/08 14:11:18;;;;;;;0.10;0.10;;;;;;;;;;5023904;28;20262;-76
2022/10/08 14:13:44;;;;;;;0.10;0.10;;;;;;;;;;5030549;28;20208;-77
2022/10/08 14:16:12;;;;;;;0.00;0.00;;;;;;;;;;5022793;28;20263;-76
2022/10/08 14:18:38;;;;;;;0.10;0.10;;;;;;;;;;5023308;28;20217;-75
2022/10/08 14:21:05;;;;;;;0.10;0.10;;;;;;;;;;5022344;28;20387;-78
2022/10/08 14:23:32;;;;;;;0.00;0.00;;;;;;;;;;5032139;28;20206;-77
2022/10/08 14:26:00;;;;;;;0.10;0.10;;;;;;;;;;5021574;28;20288;-76
2022/10/08 14:28:26;;;;;;;0.10;0.10;;;;;;;;;;5032854;28;20400;-79
2022/10/08 14:30:52;;;;;;;0.00;0.00;;;;;;;;;;5020393;28;20246;-78
2022/10/08 14:33:19;;;;;;;0.00;0.00;;;;;;;;;;5033561;28;20279;-74
2022/10/08 14:35:45;;;;;;;0.10;0.10;;;;;;;;;;5019253;28;20475;-75
2022/10/08 14:38:11;;;;;;;0.10;0.10;;;;;;;;;;5034391;28;20390;-73
2022/10/08 14:40:37;;;;;;;0.10;0.10;;;;;;;;;;5018384;28;20240;-71
2022/10/08 14:43:05;;;;;;;0.00;0.00;;;;;;;;;;5035098;28;20201;-70
2022/10/08 14:45:31;;;;;;;0.10;0.10;;;;;;;;;;5017241;28;20264;-73
2022/10/08 14:47:58;;;;;;;0.10;0.10;;;;;;;;;;5036007;28;20242;-66
2022/10/08 14:50:24;;;;;;;0.10;0.10;;;;;;;;;;5016835;28;20478;-66
2022/10/08 14:52:50;;;;;;;0.10;0.10;;;;;;;;;;5037089;28;20197;-64